sensor_id;sensor_type;location;lat;lon;timestamp;P1;durP1;ratioP1;P2;durP2;ratioP2
40555;SDS011;26250;45.422;11.100;2023-05-10T09:54:11;3.50;;;2.90;;
40555;SDS011;26250;45.422;11.100;2023-05-10T09:56:41;2.95;;;2.65;;
40555;SDS011;26250;45.422;11.100;2023-05-10T09:59:10;2.72;;;2.53;;
40555;SDS011;26250;45.422;11.100;2023-05-10T10:01:38;3.38;;;2.38;;
40555;SDS011;26250;45.422;11.100;2023-05-10T10:04:06;3.90;;;2.67;;
40555;SDS011;26250;45.422;11.100;2023-05-10T10:06:37;2.38;;;2.17;;
40555;SDS011;26250;45.422;11.100;2023-05-10T10:09:08;4.90;;;2.20;;
40555;SDS011;26250;45.422;11.100;2023-05-10T10:11:35;2.40;;;2.20;;
40555;SDS011;26250;45.422;11.100;2023-05-10T10:14:04;2.60;;;2.33;;
40555;SDS011;26250;45.422;11.100;2023-05-10T10:16:32;5.75;;;2.10;;
40555;SDS011;26250;45.422;11.100;2023-05-10T10:18:59;3.40;;;2.33;;
40555;SDS011;26250;45.422;11.100;2023-05-10T10:21:27;2.83;;;2.63;;
40555;SDS011;26250;45.422;11.100;2023-05-10T10:23:54;2.60;;;2.40;;
40555;SDS011;26250;45.422;11.100;2023-05-10T10:26:21;2.30;;;2.10;;
40555;SDS011;26250;45.422;11.100;2023-05-10T10:31:30;3.58;;;3.03;;
40555;SDS011;26250;45.422;11.100;2023-05-10T10:34:06;2.50;;;2.30;;
40555;SDS011;26250;45.422;11.100;2023-05-10T10:37:08;3.08;;;2.78;;
40555;SDS011;26250;45.422;11.100;2023-05-10T10:39:31;3.33;;;3.03;;
40555;SDS011;26250;45.422;11.100;2023-05-10T10:41:58;3.05;;;2.85;;
40555;SDS011;26250;45.422;11.100;2023-05-10T10:47:03;3.03;;;2.65;;
40555;SDS011;26250;45.422;11.100;2023-05-10T10:52:36;4.07;;;2.67;;
40555;SDS011;26250;45.422;11.100;2023-05-10T10:55:08;4.90;;;2.63;;
40555;SDS011;26250;45.422;11.100;2023-05-10T11:05:36;3.10;;;2.83;;
40555;SDS011;26250;45.422;11.100;2023-05-10T11:08:10;2.63;;;2.42;;
40555;SDS011;26250;45.422;11.100;2023-05-10T11:13:44;3.55;;;3.25;;
40555;SDS011;26250;45.422;11.100;2023-05-10T11:21:24;4.03;;;2.80;;
40555;SDS011;26250;45.422;11.100;2023-05-10T11:23:52;7.60;;;3.17;;
40555;SDS011;26250;45.422;11.100;2023-05-10T11:26:24;3.70;;;3.03;;
40555;SDS011;26250;45.422;11.100;2023-05-10T11:28:53;3.47;;;2.47;;
40555;SDS011;26250;45.422;11.100;2023-05-10T11:31:21;3.20;;;2.65;;
40555;SDS011;26250;45.422;11.100;2023-05-10T11:33:50;2.70;;;2.50;;
40555;SDS011;26250;45.422;11.100;2023-05-10T11:36:19;2.55;;;2.17;;
40555;SDS011;26250;45.422;11.100;2023-05-10T11:38:47;3.03;;;2.78;;
40555;SDS011;26250;45.422;11.100;2023-05-10T11:41:17;3.40;;;2.63;;
40555;SDS011;26250;45.422;11.100;2023-05-10T11:43:49;2.33;;;2.10;;
40555;SDS011;26250;45.422;11.100;2023-05-10T11:46:18;3.90;;;2.30;;
40555;SDS011;26250;45.422;11.100;2023-05-10T11:48:47;10.00;;;2.75;;
40555;SDS011;26250;45.422;11.100;2023-05-10T11:51:19;3.88;;;2.50;;
40555;SDS011;26250;45.422;11.100;2023-05-10T11:53:47;3.20;;;2.15;;
40555;SDS011;26250;45.422;11.100;2023-05-10T11:56:15;3.00;;;2.80;;
40555;SDS011;26250;45.422;11.100;2023-05-10T11:58:42;4.78;;;2.97;;
40555;SDS011;26250;45.422;11.100;2023-05-10T12:01:08;2.95;;;2.75;;
40555;SDS011;26250;45.422;11.100;2023-05-10T12:03:36;4.00;;;3.00;;
40555;SDS011;26250;45.422;11.100;2023-05-10T12:06:04;2.55;;;2.30;;
40555;SDS011;26250;45.422;11.100;2023-05-10T12:08:33;5.45;;;2.40;;
40555;SDS011;26250;45.422;11.100;2023-05-10T12:11:06;7.80;;;4.10;;
40555;SDS011;26250;45.422;11.100;2023-05-10T12:13:43;7.75;;;3.20;;
40555;SDS011;26250;45.422;11.100;2023-05-10T12:16:19;7.35;;;3.80;;
40555;SDS011;26250;45.422;11.100;2023-05-10T12:18:50;4.25;;;2.55;;
40555;SDS011;26250;45.422;11.100;2023-05-10T12:21:19;2.88;;;2.65;;
40555;SDS011;26250;45.422;11.100;2023-05-10T12:23:47;3.15;;;2.95;;
40555;SDS011;26250;45.422;11.100;2023-05-10T12:26:17;5.93;;;2.85;;
40555;SDS011;26250;45.422;11.100;2023-05-10T12:28:43;4.53;;;2.75;;
40555;SDS011;26250;45.422;11.100;2023-05-10T12:31:10;3.35;;;3.00;;
40555;SDS011;26250;45.422;11.100;2023-05-10T12:33:41;4.40;;;3.10;;
40555;SDS011;26250;45.422;11.100;2023-05-10T12:36:09;3.22;;;2.70;;
40555;SDS011;26250;45.422;11.100;2023-05-10T12:38:38;2.88;;;2.65;;
40555;SDS011;26250;45.422;11.100;2023-05-10T12:41:11;6.20;;;3.22;;
40555;SDS011;26250;45.422;11.100;2023-05-10T12:43:39;3.30;;;3.00;;
40555;SDS011;26250;45.422;11.100;2023-05-10T12:46:07;3.50;;;2.70;;
40555;SDS011;26250;45.422;11.100;2023-05-10T12:48:39;3.15;;;2.92;;
40555;SDS011;26250;45.422;11.100;2023-05-10T12:51:07;3.67;;;3.25;;
40555;SDS011;26250;45.422;11.100;2023-05-10T12:53:39;4.50;;;2.92;;
40555;SDS011;26250;45.422;11.100;2023-05-10T12:56:10;2.95;;;2.72;;
40555;SDS011;26250;45.422;11.100;2023-05-10T12:58:37;3.40;;;3.03;;
40555;SDS011;26250;45.422;11.100;2023-05-10T13:01:04;4.28;;;3.17;;
40555;SDS011;26250;45.422;11.100;2023-05-10T13:03:32;3.20;;;2.88;;
40555;SDS011;26250;45.422;11.100;2023-05-10T13:06:02;3.35;;;3.08;;
40555;SDS011;26250;45.422;11.100;2023-05-10T13:08:28;3.28;;;2.97;;
40555;SDS011;26250;45.422;11.100;2023-05-10T13:11:00;5.47;;;2.88;;
40555;SDS011;26250;45.422;11.100;2023-05-10T13:13:27;6.30;;;3.35;;
40555;SDS011;26250;45.422;11.100;2023-05-10T13:15:54;4.18;;;3.78;;
40555;SDS011;26250;45.422;11.100;2023-05-10T13:18:21;6.30;;;3.70;;
40555;SDS011;26250;45.422;11.100;2023-05-10T13:20:48;4.68;;;3.40;;
40555;SDS011;26250;45.422;11.100;2023-05-10T13:23:15;4.00;;;3.35;;
40555;SDS011;26250;45.422;11.100;2023-05-10T13:25:42;4.75;;;3.70;;
40555;SDS011;26250;45.422;11.100;2023-05-10T13:28:09;3.85;;;3.38;;
40555;SDS011;26250;45.422;11.100;2023-05-10T13:30:36;3.55;;;3.25;;
40555;SDS011;26250;45.422;11.100;2023-05-10T13:33:02;3.60;;;3.30;;
40555;SDS011;26250;45.422;11.100;2023-05-10T13:35:29;4.72;;;3.95;;
40555;SDS011;26250;45.422;11.100;2023-05-10T13:37:56;5.20;;;3.58;;
40555;SDS011;26250;45.422;11.100;2023-05-10T13:40:23;4.05;;;3.15;;
40555;SDS011;26250;45.422;11.100;2023-05-10T13:42:50;7.47;;;3.50;;
40555;SDS011;26250;45.422;11.100;2023-05-10T13:45:17;3.15;;;2.85;;
40555;SDS011;26250;45.422;11.100;2023-05-10T13:47:44;3.30;;;3.00;;
40555;SDS011;26250;45.422;11.100;2023-05-10T13:50:11;3.83;;;3.35;;
40555;SDS011;26250;45.422;11.100;2023-05-10T13:52:38;4.43;;;3.22;;
40555;SDS011;26250;45.422;11.100;2023-05-10T13:55:05;3.30;;;3.00;;
40555;SDS011;26250;45.422;11.100;2023-05-10T13:57:32;3.22;;;2.95;;
40555;SDS011;26250;45.422;11.100;2023-05-10T14:00:00;3.92;;;3.63;;
40555;SDS011;26250;45.422;11.100;2023-05-10T14:05:00;7.82;;;3.83;;
40555;SDS011;26250;45.422;11.100;2023-05-10T14:07:27;4.20;;;3.25;;
40555;SDS011;26250;45.422;11.100;2023-05-10T14:09:54;4.57;;;3.67;;
40555;SDS011;26250;45.422;11.100;2023-05-10T14:12:21;3.95;;;3.60;;
40555;SDS011;26250;45.422;11.100;2023-05-10T14:14:47;3.05;;;2.85;;
40555;SDS011;26250;45.422;11.100;2023-05-10T14:17:14;3.25;;;2.92;;
40555;SDS011;26250;45.422;11.100;2023-05-10T14:19:41;3.30;;;3.10;;
40555;SDS011;26250;45.422;11.100;2023-05-10T14:22:08;4.93;;;3.20;;
40555;SDS011;26250;45.422;11.100;2023-05-10T14:24:34;3.78;;;3.42;;
40555;SDS011;26250;45.422;11.100;2023-05-10T14:27:01;3.65;;;3.20;;
40555;SDS011;26250;45.422;11.100;2023-05-10T14:29:31;8.35;;;3.88;;
40555;SDS011;26250;45.422;11.100;2023-05-10T14:31:58;3.22;;;2.58;;
40555;SDS011;26250;45.422;11.100;2023-05-10T14:34:24;4.50;;;3.30;;
40555;SDS011;26250;45.422;11.100;2023-05-10T14:36:51;3.08;;;2.88;;
40555;SDS011;26250;45.422;11.100;2023-05-10T14:39:20;3.35;;;3.15;;
40555;SDS011;26250;45.422;11.100;2023-05-10T14:41:47;3.95;;;3.55;;
40555;SDS011;26250;45.422;11.100;2023-05-10T14:44:14;5.57;;;3.17;;
40555;SDS011;26250;45.422;11.100;2023-05-10T14:46:41;8.75;;;3.92;;
40555;SDS011;26250;45.422;11.100;2023-05-10T14:49:08;5.13;;;4.53;;
40555;SDS011;26250;45.422;11.100;2023-05-10T14:51:35;5.50;;;3.65;;
40555;SDS011;26250;45.422;11.100;2023-05-10T14:54:03;6.07;;;4.72;;
40555;SDS011;26250;45.422;11.100;2023-05-10T14:56:29;4.03;;;3.72;;
40555;SDS011;26250;45.422;11.100;2023-05-10T14:58:56;3.83;;;3.53;;
40555;SDS011;26250;45.422;11.100;2023-05-10T15:01:24;5.88;;;4.82;;
40555;SDS011;26250;45.422;11.100;2023-05-10T15:03:52;4.10;;;3.78;;
40555;SDS011;26250;45.422;11.100;2023-05-10T15:06:22;4.65;;;4.32;;
40555;SDS011;26250;45.422;11.100;2023-05-10T15:08:51;5.43;;;4.40;;
40555;SDS011;26250;45.422;11.100;2023-05-10T15:11:18;6.30;;;4.70;;
40555;SDS011;26250;45.422;11.100;2023-05-10T15:13:44;4.82;;;4.43;;
40555;SDS011;26250;45.422;11.100;2023-05-10T15:16:11;6.50;;;4.32;;
40555;SDS011;26250;45.422;11.100;2023-05-10T15:18:38;5.40;;;4.07;;
40555;SDS011;26250;45.422;11.100;2023-05-10T15:21:05;3.75;;;3.45;;
40555;SDS011;26250;45.422;11.100;2023-05-10T15:23:32;4.05;;;3.72;;
40555;SDS011;26250;45.422;11.100;2023-05-10T15:25:59;4.60;;;4.20;;
40555;SDS011;26250;45.422;11.100;2023-05-10T15:28:26;6.10;;;4.25;;
40555;SDS011;26250;45.422;11.100;2023-05-10T15:30:53;6.18;;;3.88;;
40555;SDS011;26250;45.422;11.100;2023-05-10T15:33:21;3.38;;;3.17;;
40555;SDS011;26250;45.422;11.100;2023-05-10T15:35:48;5.00;;;3.90;;
40555;SDS011;26250;45.422;11.100;2023-05-10T15:38:15;5.03;;;4.22;;
40555;SDS011;26250;45.422;11.100;2023-05-10T15:40:42;9.07;;;5.30;;
40555;SDS011;26250;45.422;11.100;2023-05-10T15:43:10;4.35;;;3.65;;
40555;SDS011;26250;45.422;11.100;2023-05-10T15:45:37;3.42;;;3.22;;
40555;SDS011;26250;45.422;11.100;2023-05-10T15:48:03;6.65;;;3.65;;
40555;SDS011;26250;45.422;11.100;2023-05-10T15:50:30;6.05;;;4.28;;
40555;SDS011;26250;45.422;11.100;2023-05-10T15:52:57;4.95;;;4.50;;
40555;SDS011;26250;45.422;11.100;2023-05-10T15:55:24;4.82;;;4.43;;
40555;SDS011;26250;45.422;11.100;2023-05-10T15:57:51;6.95;;;4.43;;
40555;SDS011;26250;45.422;11.100;2023-05-10T16:00:18;4.15;;;3.75;;
40555;SDS011;26250;45.422;11.100;2023-05-10T16:02:45;5.55;;;4.05;;
40555;SDS011;26250;45.422;11.100;2023-05-10T16:05:12;3.80;;;3.30;;
40555;SDS011;26250;45.422;11.100;2023-05-10T16:07:39;3.20;;;2.90;;
40555;SDS011;26250;45.422;11.100;2023-05-10T16:10:08;6.18;;;3.40;;
40555;SDS011;26250;45.422;11.100;2023-05-10T16:12:36;5.85;;;3.08;;
40555;SDS011;26250;45.422;11.100;2023-05-10T16:15:04;3.28;;;3.00;;
40555;SDS011;26250;45.422;11.100;2023-05-10T16:17:31;3.28;;;3.05;;
40555;SDS011;26250;45.422;11.100;2023-05-10T16:19:59;2.47;;;2.15;;
40555;SDS011;26250;45.422;11.100;2023-05-10T16:22:26;3.50;;;2.63;;
40555;SDS011;26250;45.422;11.100;2023-05-10T16:24:54;2.75;;;2.55;;
40555;SDS011;26250;45.422;11.100;2023-05-10T16:27:22;3.47;;;3.20;;
40555;SDS011;26250;45.422;11.100;2023-05-10T16:29:49;3.63;;;2.95;;
40555;SDS011;26250;45.422;11.100;2023-05-10T16:32:16;3.08;;;2.80;;
40555;SDS011;26250;45.422;11.100;2023-05-10T16:34:43;4.07;;;3.00;;
40555;SDS011;26250;45.422;11.100;2023-05-10T16:37:11;4.10;;;3.10;;
40555;SDS011;26250;45.422;11.100;2023-05-10T16:39:39;9.57;;;4.25;;
40555;SDS011;26250;45.422;11.100;2023-05-10T16:42:06;3.95;;;2.97;;
40555;SDS011;26250;45.422;11.100;2023-05-10T16:44:33;3.65;;;3.28;;
40555;SDS011;26250;45.422;11.100;2023-05-10T16:47:01;3.00;;;2.80;;
40555;SDS011;26250;45.422;11.100;2023-05-10T16:49:28;2.88;;;2.67;;
40555;SDS011;26250;45.422;11.100;2023-05-10T16:51:55;3.25;;;2.72;;
40555;SDS011;26250;45.422;11.100;2023-05-10T16:54:22;3.38;;;2.90;;
40555;SDS011;26250;45.422;11.100;2023-05-10T16:56:49;3.13;;;2.92;;
40555;SDS011;26250;45.422;11.100;2023-05-10T16:59:16;3.35;;;3.05;;
40555;SDS011;26250;45.422;11.100;2023-05-10T17:01:43;3.85;;;3.45;;
40555;SDS011;26250;45.422;11.100;2023-05-10T17:04:11;3.33;;;2.83;;
40555;SDS011;26250;45.422;11.100;2023-05-10T17:06:39;6.82;;;4.03;;
40555;SDS011;26250;45.422;11.100;2023-05-10T17:09:06;4.18;;;3.38;;
40555;SDS011;26250;45.422;11.100;2023-05-10T17:11:33;3.88;;;3.58;;
40555;SDS011;26250;45.422;11.100;2023-05-10T17:14:00;3.28;;;2.83;;
40555;SDS011;26250;45.422;11.100;2023-05-10T17:16:27;4.72;;;3.67;;
40555;SDS011;26250;45.422;11.100;2023-05-10T17:18:55;3.65;;;3.35;;
40555;SDS011;26250;45.422;11.100;2023-05-10T17:21:22;3.50;;;3.20;;
40555;SDS011;26250;45.422;11.100;2023-05-10T17:23:50;7.18;;;3.80;;
40555;SDS011;26250;45.422;11.100;2023-05-10T17:26:17;4.78;;;4.13;;
40555;SDS011;26250;45.422;11.100;2023-05-10T17:28:43;4.05;;;3.65;;
40555;SDS011;26250;45.422;11.100;2023-05-10T17:31:10;6.63;;;4.20;;
40555;SDS011;26250;45.422;11.100;2023-05-10T17:33:37;5.53;;;4.32;;
40555;SDS011;26250;45.422;11.100;2023-05-10T17:36:04;4.00;;;3.70;;
40555;SDS011;26250;45.422;11.100;2023-05-10T17:38:31;7.25;;;4.78;;
40555;SDS011;26250;45.422;11.100;2023-05-10T17:40:58;7.03;;;4.00;;
40555;SDS011;26250;45.422;11.100;2023-05-10T17:43:25;5.57;;;5.05;;
40555;SDS011;26250;45.422;11.100;2023-05-10T17:45:52;7.10;;;5.57;;
40555;SDS011;26250;45.422;11.100;2023-05-10T17:48:18;6.15;;;5.35;;
40555;SDS011;26250;45.422;11.100;2023-05-10T17:50:45;4.88;;;4.30;;
40555;SDS011;26250;45.422;11.100;2023-05-10T17:53:15;5.72;;;4.80;;
40555;SDS011;26250;45.422;11.100;2023-05-10T17:55:42;6.20;;;5.03;;
40555;SDS011;26250;45.422;11.100;2023-05-10T17:58:09;6.53;;;5.40;;
40555;SDS011;26250;45.422;11.100;2023-05-10T18:00:37;5.78;;;5.15;;
40555;SDS011;26250;45.422;11.100;2023-05-10T18:03:04;8.32;;;4.95;;
40555;SDS011;26250;45.422;11.100;2023-05-10T18:05:34;6.00;;;5.45;;
40555;SDS011;26250;45.422;11.100;2023-05-10T18:08:04;5.68;;;5.07;;
40555;SDS011;26250;45.422;11.100;2023-05-10T18:10:32;7.70;;;5.95;;
40555;SDS011;26250;45.422;11.100;2023-05-10T18:13:06;8.45;;;5.78;;
40555;SDS011;26250;45.422;11.100;2023-05-10T18:15:34;4.85;;;4.45;;
40555;SDS011;26250;45.422;11.100;2023-05-10T18:18:01;7.82;;;5.60;;
40555;SDS011;26250;45.422;11.100;2023-05-10T18:20:29;5.25;;;4.80;;
40555;SDS011;26250;45.422;11.100;2023-05-10T18:22:57;8.68;;;5.30;;
40555;SDS011;26250;45.422;11.100;2023-05-10T18:25:24;9.13;;;5.57;;
40555;SDS011;26250;45.422;11.100;2023-05-10T18:27:51;7.10;;;4.97;;
40555;SDS011;26250;45.422;11.100;2023-05-10T18:30:18;6.05;;;5.53;;
40555;SDS011;26250;45.422;11.100;2023-05-10T18:32:45;6.95;;;5.28;;
40555;SDS011;26250;45.422;11.100;2023-05-10T18:35:12;14.63;;;6.07;;
40555;SDS011;26250;45.422;11.100;2023-05-10T18:37:39;6.00;;;5.50;;
40555;SDS011;26250;45.422;11.100;2023-05-10T18:40:06;5.47;;;5.00;;
40555;SDS011;26250;45.422;11.100;2023-05-10T18:42:40;4.90;;;4.43;;
40555;SDS011;26250;45.422;11.100;2023-05-10T18:45:07;5.35;;;4.90;;
40555;SDS011;26250;45.422;11.100;2023-05-10T18:47:34;6.55;;;5.95;;
40555;SDS011;26250;45.422;11.100;2023-05-10T18:50:02;5.90;;;5.22;;
40555;SDS011;26250;45.422;11.100;2023-05-10T18:52:30;6.38;;;5.43;;
40555;SDS011;26250;45.422;11.100;2023-05-10T18:54:57;9.00;;;5.28;;
40555;SDS011;26250;45.422;11.100;2023-05-10T18:57:24;5.88;;;5.38;;
40555;SDS011;26250;45.422;11.100;2023-05-10T18:59:51;6.30;;;5.70;;
40555;SDS011;26250;45.422;11.100;2023-05-10T19:02:18;10.00;;;4.78;;
40555;SDS011;26250;45.422;11.100;2023-05-10T19:04:45;5.65;;;4.88;;
40555;SDS011;26250;45.422;11.100;2023-05-10T19:07:12;9.68;;;6.15;;
40555;SDS011;26250;45.422;11.100;2023-05-10T19:09:38;7.78;;;5.28;;
40555;SDS011;26250;45.422;11.100;2023-05-10T19:12:05;7.60;;;6.88;;
40555;SDS011;26250;45.422;11.100;2023-05-10T19:14:32;6.65;;;6.05;;
40555;SDS011;26250;45.422;11.100;2023-05-10T19:16:59;7.47;;;6.70;;
40555;SDS011;26250;45.422;11.100;2023-05-10T19:19:27;6.55;;;6.00;;
40555;SDS011;26250;45.422;11.100;2023-05-10T19:21:55;8.35;;;5.35;;
40555;SDS011;26250;45.422;11.100;2023-05-10T19:24:22;9.27;;;5.85;;
40555;SDS011;26250;45.422;11.100;2023-05-10T19:26:51;7.00;;;6.43;;
40555;SDS011;26250;45.422;11.100;2023-05-10T19:29:19;6.78;;;5.72;;
40555;SDS011;26250;45.422;11.100;2023-05-10T19:31:47;9.13;;;6.30;;
40555;SDS011;26250;45.422;11.100;2023-05-10T19:34:15;8.73;;;8.02;;
40555;SDS011;26250;45.422;11.100;2023-05-10T19:36:43;8.15;;;7.30;;
40555;SDS011;26250;45.422;11.100;2023-05-10T19:39:11;9.38;;;6.82;;
40555;SDS011;26250;45.422;11.100;2023-05-10T19:41:39;7.68;;;6.97;;
40555;SDS011;26250;45.422;11.100;2023-05-10T19:44:06;7.13;;;6.50;;
40555;SDS011;26250;45.422;11.100;2023-05-10T19:46:34;8.27;;;7.60;;
40555;SDS011;26250;45.422;11.100;2023-05-10T19:49:01;9.90;;;9.02;;
40555;SDS011;26250;45.422;11.100;2023-05-10T19:51:28;8.93;;;8.23;;
40555;SDS011;26250;45.422;11.100;2023-05-10T19:53:56;9.77;;;8.65;;
40555;SDS011;26250;45.422;11.100;2023-05-10T19:56:23;9.48;;;8.57;;
40555;SDS011;26250;45.422;11.100;2023-05-10T19:58:52;7.15;;;6.55;;
40555;SDS011;26250;45.422;11.100;2023-05-10T20:01:18;8.02;;;7.28;;
40555;SDS011;26250;45.422;11.100;2023-05-10T20:03:47;9.15;;;7.47;;
40555;SDS011;26250;45.422;11.100;2023-05-10T20:06:15;8.35;;;7.45;;
40555;SDS011;26250;45.422;11.100;2023-05-10T20:08:42;9.98;;;7.53;;
40555;SDS011;26250;45.422;11.100;2023-05-10T20:11:12;8.38;;;7.57;;
40555;SDS011;26250;45.422;11.100;2023-05-10T20:13:39;9.32;;;8.45;;
